Acequia, Idaho
Current Conditions -  °F | °C
As of 1:53 PM on Friday 31 Oct 2014 (Local Time) from KBYI Reporting Station
Clear Clear  
Wind Chill: 64°   Ceiling: Unl
Heat Index: 64°   Visibility: 10mi
Dew Point: 30°   Wind: 3mph
Humidity: 28%   Direction: 120°ESE
Pressure: 29.85"   Gusts: NA
Location:  42.6416°N, 113.637°W
Report Text: KBYI 311953Z AUTO 12003KT 10SM CLR 18/M01 A2985 RMK AO2 SLP085 T01781011
Loading
Personal Weather Stations






























Interactive Weather Map
Tropical Storm Tracking
New forecast layout! Learn more

10-Day Weather Forecast

Advertisements
Track Severe Weather on mobile